Time;durP1;ratioP1;P1;durP2;ratioP2;P2;SDS_P1;SDS_P2;PMS_P1;PMS_P2;Temp;Humidity;BMP_temperature;BMP_pressure;BME280_temperature;BME280_humidity;BME280_pressure;Samples;Min_cycle;Max_cycle;Signal;HPM_P1;HPM_P2
2023/03/11 00:00:39;;;;;;;0.50;0.20;;;;;;;18.47;39.08;100575.56;4838636;29;96620;-74
2023/03/11 00:03:07;;;;;;;0.52;0.20;;;;;;;18.45;38.96;100580.34;4838738;29;97067;-74
2023/03/11 00:05:36;;;;;;;0.20;0.20;;;;;;;18.50;38.95;100586.13;4839318;29;96793;-74
2023/03/11 00:08:05;;;;;;;0.20;0.20;;;;;;;18.50;38.62;100584.25;4838234;29;96758;-75
2023/03/11 00:10:38;;;;;;;0.20;0.20;;;;;;;18.48;38.65;100585.44;4839024;29;96948;-74
2023/03/11 00:13:07;;;;;;;0.45;0.30;;;;;;;18.45;39.01;100589.34;4846949;29;97928;-74
2023/03/11 00:15:34;;;;;;;0.22;0.20;;;;;;;18.45;38.54;100586.63;4857020;28;96723;-74
2023/03/11 00:18:02;;;;;;;0.20;0.20;;;;;;;18.44;38.79;100590.34;4846923;29;97484;-74
2023/03/11 00:20:34;;;;;;;0.20;0.20;;;;;;;18.43;38.92;100596.81;4853402;29;98168;-74
2023/03/11 00:23:03;;;;;;;0.50;0.20;;;;;;;18.42;39.14;100592.41;4857254;29;96616;-74
2023/03/11 00:25:31;;;;;;;0.32;0.20;;;;;;;18.41;39.25;100596.97;4856818;29;98248;-74
2023/03/11 00:27:58;;;;;;;0.30;0.30;;;;;;;18.43;38.89;100594.94;4856829;28;96752;-74
2023/03/11 00:30:25;;;;;;;0.20;0.20;;;;;;;18.45;38.57;100602.09;4836819;29;98828;-74
2023/03/11 00:32:54;;;;;;;1.00;0.20;;;;;;;18.45;38.87;100604.81;4821073;29;96862;-75
2023/03/11 00:35:24;;;;;;;0.32;0.22;;;;;;;18.47;38.69;100605.50;4855565;29;96970;-74
2023/03/11 00:37:59;;;;;;;0.50;0.30;;;;;;;18.48;38.73;100609.91;4855352;29;97133;-74
2023/03/11 00:40:27;;;;;;;0.40;0.20;;;;;;;18.49;38.61;100614.34;4844716;28;96648;-74
2023/03/11 00:42:54;;;;;;;0.28;0.28;;;;;;;18.47;39.01;100616.38;4854656;29;97433;-74
2023/03/11 00:45:21;;;;;;;0.30;0.20;;;;;;;18.48;38.58;100609.91;4837003;29;96914;-74
2023/03/11 00:47:49;;;;;;;0.17;0.15;;;;;;;18.46;38.82;100622.81;4853226;29;96865;-73
2023/03/11 00:50:19;;;;;;;0.20;0.20;;;;;;;18.46;38.84;100623.69;4846542;29;97824;-74
2023/03/11 00:52:48;;;;;;;0.50;0.20;;;;;;;18.47;38.60;100621.81;4836029;29;97973;-74
2023/03/11 00:55:17;;;;;;;0.20;0.20;;;;;;;18.45;38.75;100621.13;4838106;29;98386;-74
2023/03/11 00:57:44;;;;;;;0.35;0.20;;;;;;;18.47;39.05;100624.53;4833001;29;96744;-74
2023/03/11 01:00:16;;;;;;;0.40;0.20;;;;;;;18.46;38.50;100622.81;4827989;29;96861;-74
2023/03/11 01:02:42;;;;;;;0.22;0.22;;;;;;;18.42;38.71;100623.16;4851410;29;99942;-75
2023/03/11 01:05:09;;;;;;;0.20;0.10;;;;;;;18.43;38.80;100624.84;4836104;29;98404;-74
2023/03/11 01:07:36;;;;;;;0.20;0.20;;;;;;;18.40;38.83;100625.19;4836590;29;96812;-74
2023/03/11 01:10:04;;;;;;;0.28;0.20;;;;;;;18.41;38.70;100629.59;4851610;29;96887;-74
2023/03/11 01:12:31;;;;;;;0.20;0.20;;;;;;;18.40;38.85;100627.91;4839448;29;96680;-74
2023/03/11 01:15:00;;;;;;;0.10;0.10;;;;;;;18.39;38.76;100637.06;4855349;29;96683;-74
2023/03/11 01:17:27;;;;;;;0.20;0.20;;;;;;;18.42;38.82;100644.91;4837375;29;97152;-74
2023/03/11 01:19:53;;;;;;;0.22;0.20;;;;;;;18.43;38.69;100651.19;4842806;29;97083;-74
2023/03/11 01:22:20;;;;;;;0.40;0.20;;;;;;;18.40;39.08;100655.09;4849827;29;97282;-74
2023/03/11 01:24:47;;;;;;;0.40;0.30;;;;;;;18.42;38.96;100660.38;4836539;29;98122;-75
2023/03/11 01:27:13;;;;;;;0.17;0.17;;;;;;;18.40;38.77;100663.25;4849356;29;96950;-74
2023/03/11 01:29:40;;;;;;;0.43;0.30;;;;;;;18.43;38.74;100671.09;4850947;28;97008;-74
2023/03/11 01:32:07;;;;;;;0.45;0.20;;;;;;;18.43;38.72;100665.66;4836975;29;98186;-74
2023/03/11 01:34:35;;;;;;;0.60;0.20;;;;;;;18.45;38.61;100670.06;4820512;29;99806;-74
2023/03/11 01:37:02;;;;;;;0.38;0.28;;;;;;;18.47;38.63;100668.03;4851558;28;97212;-74
2023/03/11 01:39:29;;;;;;;0.40;0.30;;;;;;;18.43;38.62;100671.09;4851686;28;97015;-74
2023/03/11 01:41:56;;;;;;;0.10;0.10;;;;;;;18.46;38.59;100669.06;4844459;29;97411;-74
2023/03/11 01:44:23;;;;;;;0.63;0.63;;;;;;;18.44;39.02;100669.22;4870002;28;99153;-74
2023/03/11 01:46:52;;;;;;;0.20;0.20;;;;;;;18.41;39.07;100669.53;4854311;29;97430;-76
2023/03/11 01:49:27;;;;;;;0.38;0.20;;;;;;;18.41;38.94;100670.41;4841872;29;96944;-74
2023/03/11 01:51:59;;;;;;;0.28;0.20;;;;;;;18.43;38.58;100671.09;4860706;28;96963;-74
2023/03/11 01:54:29;;;;;;;0.35;0.20;;;;;;;18.45;38.86;100673.63;4868400;28;99006;-74
2023/03/11 01:56:58;;;;;;;0.20;0.20;;;;;;;18.45;39.02;100668.19;4870826;28;96928;-74
2023/03/11 01:59:29;;;;;;;0.20;0.20;;;;;;;18.45;38.79;100670.91;4850476;29;97401;-74
2023/03/11 02:02:15;;;;;;;0.45;0.20;;;;;;;18.45;38.63;100667.34;4835756;29;97499;-74
2023/03/11 02:04:42;;;;;;;0.43;0.20;;;;;;;18.43;38.82;100673.81;4836017;29;100183;-75
2023/03/11 02:07:10;;;;;;;0.38;0.20;;;;;;;18.44;38.79;100680.09;4850396;28;96868;-74
2023/03/11 02:09:37;;;;;;;0.20;0.20;;;;;;;18.45;38.91;100680.94;4816795;29;96861;-74
2023/03/11 02:12:06;;;;;;;0.20;0.20;;;;;;;18.43;39.05;100681.09;4834303;29;98126;-75
2023/03/11 02:14:34;;;;;;;0.38;0.20;;;;;;;18.42;38.92;100676.69;4835560;29;97336;-74
2023/03/11 02:17:01;;;;;;;0.10;0.10;;;;;;;18.43;38.70;100679.25;4865151;28;96790;-74
2023/03/11 02:19:45;;;;;;;0.43;0.20;;;;;;;18.43;38.82;100676.53;4845721;29;97322;-74
2023/03/11 02:22:13;;;;;;;0.20;0.20;;;;;;;18.44;38.68;100685.53;4834513;29;96942;-74
2023/03/11 02:24:49;;;;;;;0.38;0.20;;;;;;;18.42;38.61;100682.97;4851382;28;99438;-73
2023/03/11 02:27:18;;;;;;;0.30;0.20;;;;;;;18.44;38.47;100688.25;4836187;29;96685;-74
2023/03/11 02:29:48;;;;;;;0.20;0.10;;;;;;;18.45;39.02;100691.81;4835343;29;97168;-75
2023/03/11 02:32:18;;;;;;;0.30;0.20;;;;;;;18.41;38.51;100692.16;4846758;29;99764;-74
2023/03/11 02:34:45;;;;;;;0.20;0.20;;;;;;;18.39;38.69;100691.47;4833224;29;98578;-75
2023/03/11 02:37:15;;;;;;;0.20;0.17;;;;;;;18.39;39.05;100698.75;4842360;29;96783;-74
2023/03/11 02:39:51;;;;;;;1.05;0.25;;;;;;;18.37;38.80;100696.22;4840477;29;96856;-74
2023/03/11 02:42:31;;;;;;;0.10;0.10;;;;;;;18.36;38.93;100694.50;4843877;29;100548;-74
2023/03/11 02:45:09;;;;;;;0.20;0.20;;;;;;;18.37;38.77;100696.22;4834716;29;100691;-74
2023/03/11 02:47:38;;;;;;;0.32;0.20;;;;;;;18.39;39.10;100691.47;4837776;29;96727;-74
2023/03/11 02:50:10;;;;;;;0.52;0.52;;;;;;;18.39;38.92;100694.19;4845886;29;97162;-74
2023/03/11 02:52:37;;;;;;;0.13;0.10;;;;;;;18.38;39.15;100688.91;4850266;29;98503;-74
2023/03/11 02:55:05;;;;;;;0.22;0.20;;;;;;;18.40;38.89;100687.72;4832301;29;96749;-74
2023/03/11 02:57:32;;;;;;;0.40;0.10;;;;;;;18.41;38.74;100686.72;4848536;29;96606;-76
2023/03/11 03:00:05;;;;;;;0.40;0.20;;;;;;;18.38;38.93;100691.63;4843887;29;97450;-74
2023/03/11 03:02:31;;;;;;;0.32;0.20;;;;;;;18.38;38.83;100691.63;4850341;28;99481;-74
2023/03/11 03:04:58;;;;;;;0.38;0.20;;;;;;;18.40;38.62;100693.16;4838332;29;100228;-74
2023/03/11 03:07:25;;;;;;;0.50;0.20;;;;;;;18.43;38.74;100689.25;4850449;29;96726;-74
2023/03/11 03:09:53;;;;;;;0.20;0.20;;;;;;;18.43;38.93;100691.97;4853376;28;96905;-74
2023/03/11 03:12:20;;;;;;;0.77;0.30;;;;;;;18.42;38.99;100684.84;4837308;29;99456;-73
2023/03/11 03:14:46;;;;;;;0.13;0.10;;;;;;;18.41;38.96;100688.56;4837997;29;99168;-74
2023/03/11 03:17:15;;;;;;;0.60;0.30;;;;;;;18.40;38.88;100689.59;4837734;29;96995;-74
2023/03/11 03:19:41;;;;;;;0.32;0.20;;;;;;;18.40;38.98;100695.88;4853860;28;96993;-74
2023/03/11 03:22:08;;;;;;;0.20;0.10;;;;;;;18.43;39.09;100705.56;4838451;29;100783;-74
2023/03/11 03:24:35;;;;;;;0.43;0.30;;;;;;;18.42;38.83;100704.72;4838343;29;98427;-74
2023/03/11 03:27:01;;;;;;;0.57;0.30;;;;;;;18.43;38.60;100706.44;4837420;29;97181;-74
2023/03/11 03:29:29;;;;;;;0.45;0.30;;;;;;;18.41;38.93;100713.91;4837719;29;96976;-74
2023/03/11 03:31:56;;;;;;;0.20;0.20;;;;;;;18.39;38.85;100720.50;4843208;29;97809;-74
2023/03/11 03:34:22;;;;;;;0.13;0.10;;;;;;;18.39;39.00;100726.81;4861080;28;97477;-74
2023/03/11 03:36:49;;;;;;;0.30;0.20;;;;;;;18.41;39.00;100734.81;4834667;29;97550;-73
2023/03/11 03:39:18;;;;;;;0.20;0.20;;;;;;;18.39;38.65;100734.97;4845718;28;96896;-74
2023/03/11 03:41:47;;;;;;;0.10;0.10;;;;;;;18.38;39.01;100749.56;4822294;29;96936;-74
2023/03/11 03:44:14;;;;;;;0.20;0.17;;;;;;;18.37;39.11;100747.00;4837946;29;98183;-74
2023/03/11 03:46:40;;;;;;;0.25;0.20;;;;;;;18.37;38.90;100756.03;4850102;29;96968;-74
2023/03/11 03:49:08;;;;;;;0.30;0.20;;;;;;;18.38;38.66;100755.00;4836486;29;96916;-76
2023/03/11 03:51:35;;;;;;;0.20;0.13;;;;;;;18.39;38.70;100754.00;4856372;28;96948;-74
2023/03/11 03:54:13;;;;;;;0.20;0.20;;;;;;;18.42;38.64;100758.25;4841216;29;97052;-74
2023/03/11 03:56:41;;;;;;;0.10;0.10;;;;;;;18.39;38.58;100762.16;4847154;29;96812;-74
2023/03/11 03:59:08;;;;;;;0.20;0.20;;;;;;;18.37;38.93;100757.91;4825250;29;97228;-77
2023/03/11 04:01:39;;;;;;;0.20;0.20;;;;;;;18.35;38.78;100760.78;4837253;29;96913;-74
2023/03/11 04:04:06;;;;;;;0.30;0.20;;;;;;;18.34;38.98;100759.06;4841546;29;97522;-75
2023/03/11 04:06:33;;;;;;;0.20;0.20;;;;;;;18.36;39.00;100764.34;4855271;29;96739;-74
2023/03/11 04:09:03;;;;;;;0.30;0.20;;;;;;;18.35;38.77;100766.22;4839366;29;96871;-74
2023/03/11 04:11:32;;;;;;;0.15;0.10;;;;;;;18.35;39.03;100768.94;4852406;28;99097;-74
2023/03/11 04:14:01;;;;;;;0.17;0.17;;;;;;;18.34;38.96;100764.50;4852576;28;96680;-75
2023/03/11 04:16:29;;;;;;;0.20;0.15;;;;;;;18.36;38.93;100778.78;4852681;29;96831;-74
2023/03/11 04:19:00;;;;;;;0.75;0.30;;;;;;;18.39;39.03;100780.34;4837019;29;96647;-75
2023/03/11 04:21:27;;;;;;;0.20;0.20;;;;;;;18.36;38.85;100770.63;4836436;29;97903;-73
2023/03/11 04:23:55;;;;;;;0.20;0.20;;;;;;;18.36;38.72;100781.50;4818345;29;96924;-74
2023/03/11 04:26:27;;;;;;;0.45;0.10;;;;;;;18.37;38.69;100780.50;4830697;29;96759;-75
2023/03/11 04:28:54;;;;;;;0.38;0.20;;;;;;;18.36;39.02;100780.66;4836879;29;97058;-74
2023/03/11 04:31:22;;;;;;;0.68;0.20;;;;;;;18.39;38.92;100785.78;4836122;29;98267;-74
2023/03/11 04:33:49;;;;;;;0.10;0.10;;;;;;;18.38;38.97;100784.91;4842239;29;99274;-74
2023/03/11 04:36:16;;;;;;;0.30;0.10;;;;;;;18.37;38.54;100791.38;4870214;28;96833;-73
2023/03/11 04:38:44;;;;;;;0.30;0.10;;;;;;;18.39;38.94;100792.06;4848989;29;96872;-74
2023/03/11 04:41:12;;;;;;;0.30;0.20;;;;;;;18.41;38.47;100792.75;4835217;29;98171;-73
2023/03/11 04:43:40;;;;;;;0.60;0.22;;;;;;;18.39;38.97;100791.22;4836750;29;98646;-74
2023/03/11 04:46:06;;;;;;;0.10;0.10;;;;;;;18.39;38.79;100788.50;4852050;29;98069;-74
2023/03/11 04:48:33;;;;;;;0.20;0.17;;;;;;;18.38;38.91;100784.91;4838366;29;97060;-74
2023/03/11 04:51:00;;;;;;;0.40;0.20;;;;;;;18.38;39.01;100782.19;4837114;29;97702;-74
2023/03/11 04:53:27;;;;;;;0.30;0.20;;;;;;;18.38;38.70;100782.19;4852243;28;97209;-74
2023/03/11 04:55:54;;;;;;;0.10;0.10;;;;;;;18.38;38.95;100789.50;4836517;29;96797;-74
2023/03/11 04:58:21;;;;;;;0.43;0.30;;;;;;;18.39;38.92;100788.50;4837040;29;97137;-75
2023/03/11 05:00:48;;;;;;;0.40;0.20;;;;;;;18.39;38.61;100792.06;4835692;29;98761;-74
2023/03/11 05:03:15;;;;;;;0.30;0.20;;;;;;;18.36;38.71;100792.38;4836416;29;96844;-75
2023/03/11 05:05:43;;;;;;;0.10;0.10;;;;;;;18.38;38.60;100793.06;4836288;29;96790;-74
2023/03/11 05:08:10;;;;;;;0.85;0.10;;;;;;;18.36;38.61;100792.38;4837148;29;96642;-74
2023/03/11 05:10:41;;;;;;;0.28;0.20;;;;;;;18.36;38.74;100788.81;4820170;29;97164;-74
2023/03/11 05:13:09;;;;;;;0.20;0.20;;;;;;;18.32;38.68;100792.88;4835886;29;99122;-74
2023/03/11 05:15:37;;;;;;;0.38;0.20;;;;;;;18.31;38.67;100797.44;4836859;29;97926;-75
2023/03/11 05:18:05;;;;;;;0.22;0.22;;;;;;;18.31;39.02;100794.72;4837165;29;96974;-74
2023/03/11 05:20:33;;;;;;;0.20;0.20;;;;;;;18.31;38.93;100800.16;4835333;29;98072;-75
2023/03/11 05:23:00;;;;;;;0.13;0.10;;;;;;;18.32;38.89;100806.47;4836216;29;98858;-74
2023/03/11 05:25:30;;;;;;;0.20;0.17;;;;;;;18.31;38.98;100812.91;4838451;29;96787;-74
2023/03/11 05:27:57;;;;;;;0.20;0.10;;;;;;;18.33;38.72;100809.03;4851617;28;96897;-74
2023/03/11 05:30:23;;;;;;;0.20;0.15;;;;;;;18.33;38.88;100814.47;4850028;28;98896;-73
2023/03/11 05:32:50;;;;;;;0.63;0.20;;;;;;;18.34;38.87;100818.03;4837175;29;97188;-75
2023/03/11 05:35:17;;;;;;;0.40;0.20;;;;;;;18.34;38.97;100823.47;4852383;28;96997;-74
2023/03/11 05:37:43;;;;;;;0.10;0.10;;;;;;;18.34;38.51;100815.31;4837986;29;96870;-74
2023/03/11 05:40:11;;;;;;;0.20;0.20;;;;;;;18.32;38.99;100812.75;4835054;29;99467;-76
2023/03/11 05:42:40;;;;;;;0.30;0.20;;;;;;;18.34;38.90;100813.44;4835627;29;100618;-75
2023/03/11 05:45:08;;;;;;;0.17;0.10;;;;;;;18.32;38.71;100815.47;4824628;29;96684;-74
2023/03/11 05:47:37;;;;;;;0.20;0.15;;;;;;;18.32;38.94;100823.63;4836229;29;96980;-74
2023/03/11 05:50:05;;;;;;;0.35;0.20;;;;;;;18.34;38.58;100826.19;4834993;29;97746;-74
2023/03/11 05:52:32;;;;;;;0.17;0.17;;;;;;;18.34;39.03;100829.75;4834868;29;98997;-74
2023/03/11 05:54:59;;;;;;;0.10;0.10;;;;;;;18.35;39.00;100834.19;4834587;29;97433;-74
2023/03/11 05:57:28;;;;;;;0.20;0.20;;;;;;;18.34;38.79;100837.91;4835424;29;96713;-74
2023/03/11 05:59:55;;;;;;;0.45;0.20;;;;;;;18.36;38.72;100838.59;4834227;29;99680;-74
2023/03/11 06:02:23;;;;;;;0.22;0.22;;;;;;;18.35;38.67;100846.94;4835117;29;98762;-74
2023/03/11 06:04:49;;;;;;;0.20;0.15;;;;;;;18.32;39.01;100839.94;4837227;29;97141;-74
2023/03/11 06:07:16;;;;;;;0.20;0.20;;;;;;;18.36;38.73;100852.22;4835398;29;97287;-74
2023/03/11 06:09:49;;;;;;;0.10;0.10;;;;;;;18.34;38.83;100856.09;4850730;28;99381;-74
2023/03/11 06:12:17;;;;;;;0.20;0.20;;;;;;;18.33;38.53;100859.81;4835394;29;96892;-75
2023/03/11 06:14:54;;;;;;;0.50;0.20;;;;;;;18.36;38.47;100857.63;4844385;29;97215;-74
2023/03/11 06:17:21;;;;;;;0.30;0.25;;;;;;;18.36;38.86;100873.09;4837151;29;96613;-74
2023/03/11 06:19:47;;;;;;;0.38;0.20;;;;;;;18.31;38.72;100870.84;4834066;29;97291;-74
2023/03/11 06:22:14;;;;;;;0.40;0.20;;;;;;;18.32;38.65;100869.00;4835229;29;99017;-74
2023/03/11 06:24:41;;;;;;;0.35;0.20;;;;;;;18.31;38.56;100872.72;4850772;29;96958;-73
2023/03/11 06:27:08;;;;;;;0.30;0.10;;;;;;;18.30;39.05;100866.44;4835032;29;96776;-74
2023/03/11 06:29:35;;;;;;;0.10;0.10;;;;;;;18.30;38.54;100874.59;4849778;28;98976;-74
2023/03/11 06:32:02;;;;;;;0.40;0.20;;;;;;;18.29;38.66;100867.44;4851478;28;100022;-74
2023/03/11 06:34:29;;;;;;;0.40;0.10;;;;;;;18.29;39.00;100880.19;4835414;29;97220;-73
2023/03/11 06:36:56;;;;;;;0.20;0.20;;;;;;;18.27;38.85;100880.34;4835409;29;96937;-74
2023/03/11 06:39:22;;;;;;;0.38;0.20;;;;;;;18.31;38.80;100891.75;4850354;29;99780;-74
2023/03/11 06:41:50;;;;;;;0.50;0.10;;;;;;;18.32;38.76;100888.88;4850792;28;98821;-74
2023/03/11 06:44:17;;;;;;;0.22;0.22;;;;;;;18.32;39.02;100888.88;4834670;29;96764;-74
2023/03/11 06:46:44;;;;;;;0.40;0.22;;;;;;;18.31;38.79;100889.91;4850622;28;96773;-74
2023/03/11 06:49:11;;;;;;;0.20;0.10;;;;;;;18.33;39.04;100898.75;4835072;29;98984;-73
2023/03/11 06:51:40;;;;;;;0.20;0.20;;;;;;;18.33;38.67;100898.75;4834966;29;97291;-74
2023/03/11 06:54:09;;;;;;;0.45;0.30;;;;;;;18.34;38.86;100902.31;4851108;28;96706;-74
2023/03/11 06:56:35;;;;;;;0.40;0.22;;;;;;;18.34;38.53;100913.19;4835054;29;97287;-73
2023/03/11 06:59:05;;;;;;;0.15;0.10;;;;;;;18.32;38.65;100918.78;4834326;29;100909;-74
2023/03/11 07:01:33;;;;;;;0.30;0.20;;;;;;;18.30;38.75;100926.25;4835120;29;96702;-74
2023/03/11 07:04:02;;;;;;;0.40;0.20;;;;;;;18.31;38.89;100924.38;4852332;28;96773;-74
2023/03/11 07:06:30;;;;;;;0.30;0.10;;;;;;;18.31;38.69;100936.09;4852909;28;97279;-74
2023/03/11 07:09:04;;;;;;;0.43;0.22;;;;;;;18.31;38.75;100935.25;4843165;29;98934;-74
2023/03/11 07:11:33;;;;;;;0.15;0.13;;;;;;;18.29;38.86;100938.13;4841204;29;98873;-74
2023/03/11 07:14:07;;;;;;;0.13;0.10;;;;;;;18.29;38.82;100938.13;4834531;29;98019;-74
2023/03/11 07:16:37;;;;;;;0.25;0.20;;;;;;;18.32;38.98;100939.69;4834594;29;96830;-74
2023/03/11 07:19:11;;;;;;;0.10;0.10;;;;;;;18.30;38.66;100941.72;4849548;28;99032;-74
2023/03/11 07:21:38;;;;;;;0.10;0.10;;;;;;;18.32;38.78;100942.41;4834321;29;96948;-73
2023/03/11 07:24:05;;;;;;;0.10;0.10;;;;;;;18.33;38.88;100946.84;4835547;29;97386;-75
2023/03/11 07:26:33;;;;;;;0.40;0.28;;;;;;;18.32;38.82;100945.13;4837248;29;97017;-74
2023/03/11 07:29:01;;;;;;;0.20;0.20;;;;;;;18.33;38.91;100954.97;4835077;28;97949;-73
2023/03/11 07:31:30;;;;;;;0.30;0.10;;;;;;;18.32;38.99;100962.28;4846420;29;97218;-73
2023/03/11 07:34:02;;;;;;;0.30;0.20;;;;;;;18.34;38.46;100957.56;4835261;29;96713;-73
2023/03/11 07:36:29;;;;;;;0.28;0.10;;;;;;;18.37;38.46;100962.69;4841017;29;97410;-73
2023/03/11 07:38:58;;;;;;;0.15;0.13;;;;;;;18.35;38.47;100969.28;4835450;29;98799;-73
2023/03/11 07:41:29;;;;;;;0.20;0.15;;;;;;;18.33;38.81;100964.00;4834234;29;96865;-73
2023/03/11 07:43:58;;;;;;;0.10;0.10;;;;;;;18.35;38.60;100972.84;4835105;29;96678;-73
2023/03/11 07:46:27;;;;;;;0.10;0.10;;;;;;;18.39;38.59;100974.25;4850527;28;96882;-74
2023/03/11 07:48:54;;;;;;;0.10;0.10;;;;;;;18.39;38.50;100976.13;4836627;29;97882;-74
2023/03/11 07:51:24;;;;;;;0.20;0.15;;;;;;;18.39;38.44;100970.69;4843944;29;97349;-73
2023/03/11 07:53:53;;;;;;;0.73;0.20;;;;;;;18.41;38.69;100976.81;4841284;29;97402;-73
2023/03/11 07:56:21;;;;;;;0.15;0.10;;;;;;;18.40;38.40;100972.38;4843670;29;97355;-73
2023/03/11 07:58:49;;;;;;;0.20;0.20;;;;;;;18.43;38.75;100981.09;4843574;29;97045;-73
2023/03/11 08:01:22;;;;;;;0.10;0.10;;;;;;;18.43;38.81;100982.94;4843562;29;97915;-73
2023/03/11 08:03:55;;;;;;;0.10;0.10;;;;;;;18.41;38.32;100990.41;4837475;29;97020;-73
2023/03/11 08:06:25;;;;;;;0.20;0.20;;;;;;;18.42;38.66;101001.13;4844364;29;96915;-73
2023/03/11 08:08:52;;;;;;;0.15;0.10;;;;;;;18.44;38.68;101000.97;4846556;28;97133;-73
2023/03/11 08:11:21;;;;;;;0.40;0.20;;;;;;;18.47;38.69;100994.38;4841619;29;97130;-73
2023/03/11 08:13:49;;;;;;;0.40;0.20;;;;;;;18.49;38.40;100992.34;4850662;29;97100;-73
2023/03/11 08:16:18;;;;;;;0.30;0.25;;;;;;;18.48;38.27;100999.66;4847720;29;96977;-73
2023/03/11 08:18:46;;;;;;;0.20;0.10;;;;;;;18.46;38.74;101006.25;4856315;28;97598;-73
2023/03/11 08:21:15;;;;;;;0.32;0.20;;;;;;;18.47;38.35;100997.94;4871609;28;96812;-73
2023/03/11 08:23:42;;;;;;;0.40;0.15;;;;;;;18.50;38.50;101004.94;4853421;29;96799;-74
2023/03/11 08:26:12;;;;;;;0.35;0.20;;;;;;;18.50;38.53;101015.81;4849189;29;97579;-73
2023/03/11 08:28:39;;;;;;;0.10;0.10;;;;;;;18.51;38.76;101015.66;4840472;28;97416;-73
2023/03/11 08:31:17;;;;;;;0.17;0.10;;;;;;;18.49;38.48;101016.81;4837155;29;96774;-73
2023/03/11 08:33:48;;;;;;;0.22;0.20;;;;;;;18.50;38.53;101021.25;4837511;29;97116;-73
2023/03/11 08:36:16;;;;;;;0.10;0.10;;;;;;;18.50;38.24;101011.22;4838713;29;96786;-73
2023/03/11 08:38:42;;;;;;;0.20;0.15;;;;;;;18.52;38.58;101009.22;4837091;29;97772;-73
2023/03/11 08:41:09;;;;;;;0.28;0.20;;;;;;;18.55;38.25;101000.72;4837167;29;97323;-73
2023/03/11 08:43:35;;;;;;;0.10;0.10;;;;;;;18.57;38.36;101003.28;4856750;29;96786;-73
2023/03/11 08:46:05;;;;;;;0.20;0.20;;;;;;;18.56;38.45;101004.31;4856598;29;96712;-74
2023/03/11 08:48:33;;;;;;;0.50;0.20;;;;;;;18.56;38.61;101007.03;4848595;28;96743;-73
2023/03/11 08:51:00;;;;;;;0.52;0.20;;;;;;;18.55;38.52;101008.03;4848940;29;97769;-73
2023/03/11 08:53:26;;;;;;;0.38;0.25;;;;;;;18.62;38.44;101009.19;4848515;29;96703;-74
2023/03/11 08:55:53;;;;;;;0.20;0.10;;;;;;;18.61;38.28;101013.78;4853913;29;96727;-73
2023/03/11 08:58:19;;;;;;;0.40;0.20;;;;;;;18.61;38.12;101018.31;4863218;28;97422;-73
2023/03/11 09:00:46;;;;;;;0.20;0.17;;;;;;;18.58;38.30;101019.50;4839019;29;96982;-73
2023/03/11 09:03:12;;;;;;;0.20;0.20;;;;;;;18.56;38.47;101037.81;4846388;29;96828;-73
2023/03/11 09:05:40;;;;;;;0.10;0.10;;;;;;;18.55;38.25;101040.69;4838791;29;97348;-73
2023/03/11 09:08:06;;;;;;;0.13;0.10;;;;;;;18.51;38.20;101047.44;4838111;29;97019;-74
2023/03/11 09:10:33;;;;;;;0.28;0.20;;;;;;;18.51;38.53;101051.00;4838872;29;96831;-73
2023/03/11 09:12:59;;;;;;;0.40;0.20;;;;;;;18.48;38.33;101043.16;4837625;29;97069;-73
2023/03/11 09:15:26;;;;;;;0.20;0.17;;;;;;;18.51;38.69;101039.28;4836112;29;96998;-73
2023/03/11 09:17:53;;;;;;;0.10;0.10;;;;;;;18.50;38.64;101049.31;4845539;29;97722;-73
2023/03/11 09:20:19;;;;;;;0.10;0.10;;;;;;;18.51;38.50;101048.28;4826046;29;98594;-74
2023/03/11 09:22:46;;;;;;;0.17;0.10;;;;;;;18.50;38.67;101043.88;4848367;29;97138;-73
2023/03/11 09:25:13;;;;;;;0.20;0.20;;;;;;;18.51;38.21;101044.72;4851546;29;96678;-73
2023/03/11 09:27:40;;;;;;;0.20;0.20;;;;;;;18.52;38.32;101052.72;4856034;28;97116;-73
2023/03/11 09:30:08;;;;;;;0.73;0.40;;;;;;;18.52;38.26;101047.28;4840883;28;96862;-73
2023/03/11 09:32:35;;;;;;;0.35;0.17;;;;;;;18.56;38.23;101056.84;4836691;29;97049;-73
2023/03/11 09:35:02;;;;;;;0.10;0.10;;;;;;;18.55;38.67;101054.28;4836494;29;97320;-74
2023/03/11 09:37:29;;;;;;;0.75;0.20;;;;;;;18.58;38.55;101065.72;4836541;29;97005;-73
2023/03/11 09:39:55;;;;;;;0.30;0.20;;;;;;;18.58;38.52;101052.13;4836312;29;97458;-74
2023/03/11 09:42:33;;;;;;;0.20;0.20;;;;;;;18.61;38.25;101054.56;4837642;29;96932;-73
2023/03/11 09:45:17;;;;;;;0.28;0.15;;;;;;;18.62;38.42;101059.00;4837571;29;97048;-75
2023/03/11 09:48:21;;;;;;;0.10;0.10;;;;;;;18.62;38.53;101061.72;4837480;29;96792;-73
2023/03/11 09:50:52;;;;;;;0.20;0.20;;;;;;;18.64;38.34;101069.72;4835335;29;97324;-73
2023/03/11 09:53:34;;;;;;;0.20;0.10;;;;;;;18.61;38.48;101070.88;4852249;28;96717;-73
2023/03/11 09:56:06;;;;;;;0.15;0.10;;;;;;;18.60;38.23;101076.47;4836463;29;96768;-73
2023/03/11 09:58:46;;;;;;;0.35;0.20;;;;;;;18.62;38.64;101074.47;4835464;29;99198;-74
2023/03/11 10:01:35;;;;;;;0.52;0.20;;;;;;;18.61;38.60;101073.63;4836913;29;97343;-74
2023/03/11 10:04:11;;;;;;;0.10;0.10;;;;;;;18.66;38.47;101068.56;4838471;29;96817;-73
2023/03/11 10:06:40;;;;;;;0.25;0.20;;;;;;;18.70;38.38;101069.97;4838298;29;96903;-74
2023/03/11 10:09:39;;;;;;;0.13;0.10;;;;;;;18.73;38.49;101066.06;4835300;29;96687;-74
2023/03/11 10:12:31;;;;;;;0.73;0.20;;;;;;;18.77;38.44;101072.91;4837762;29;97458;-73
2023/03/11 10:15:08;;;;;;;0.20;0.10;;;;;;;18.77;38.03;101064.75;4847496;29;96797;-74
2023/03/11 10:18:03;;;;;;;0.10;0.10;;;;;;;18.78;38.21;101065.59;4842198;29;97403;-74
2023/03/11 10:20:51;;;;;;;0.20;0.20;;;;;;;18.74;38.42;101062.34;4841829;29;96967;-73
2023/03/11 10:23:33;;;;;;;0.13;0.10;;;;;;;18.78;38.13;101071.91;4855382;29;96735;-74
2023/03/11 10:26:15;;;;;;;0.30;0.25;;;;;;;18.78;38.15;101073.75;4837244;29;96786;-74
2023/03/11 10:28:50;;;;;;;0.20;0.20;;;;;;;18.80;38.36;101077.19;4836656;29;97174;-73
2023/03/11 10:31:17;;;;;;;0.10;0.10;;;;;;;18.76;38.03;101079.34;4837873;29;97587;-73
2023/03/11 10:34:05;;;;;;;0.10;0.10;;;;;;;18.77;38.29;101077.50;4836618;29;96616;-73
2023/03/11 10:36:41;;;;;;;0.10;0.10;;;;;;;18.77;38.27;101080.22;4833650;29;98618;-72
2023/03/11 10:39:10;;;;;;;0.45;0.20;;;;;;;18.74;38.30;101084.09;4846410;29;97207;-73
2023/03/11 10:41:46;;;;;;;0.10;0.10;;;;;;;18.74;38.59;101084.09;4859937;28;100140;-73
2023/03/11 10:44:20;;;;;;;0.20;0.10;;;;;;;18.73;38.13;101085.97;4844739;29;97573;-73
2023/03/11 10:46:46;;;;;;;0.10;0.10;;;;;;;18.78;38.44;101085.50;4838498;29;96974;-72
2023/03/11 10:49:15;;;;;;;0.20;0.10;;;;;;;18.80;37.99;101085.34;4834440;29;96756;-74
2023/03/11 10:51:46;;;;;;;0.25;0.20;;;;;;;18.85;38.29;101086.59;4842421;29;96934;-73
2023/03/11 10:54:26;;;;;;;0.10;0.10;;;;;;;18.86;37.90;101093.72;4844890;29;98057;-72
2023/03/11 10:57:16;;;;;;;0.10;0.10;;;;;;;18.85;38.04;101091.16;4842898;29;96792;-73
2023/03/11 10:59:49;;;;;;;0.50;0.10;;;;;;;18.80;38.43;101097.09;4832596;29;97040;-73
2023/03/11 11:02:24;;;;;;;0.20;0.10;;;;;;;18.82;38.19;101089.63;4836053;29;97003;-73
2023/03/11 11:05:13;;;;;;;0.15;0.15;;;;;;;18.85;38.25;101088.44;4834045;29;97810;-74
2023/03/11 11:07:40;;;;;;;0.20;0.20;;;;;;;18.88;38.29;101091.72;4849204;29;96755;-73
2023/03/11 11:10:15;;;;;;;0.30;0.20;;;;;;;18.88;38.38;101090.84;4840479;29;96831;-73
2023/03/11 11:12:54;;;;;;;;;;;;;;;18.90;38.26;101086.13;4836214;29;97611;-72
2023/03/11 11:15:24;;;;;;;0.20;0.20;;;;;;;18.85;38.30;101085.72;4849144;29;96653;-73
2023/03/11 11:17:54;;;;;;;0.20;0.20;;;;;;;18.81;38.20;101085.19;4835840;29;96986;-73
2023/03/11 11:20:22;;;;;;;0.20;0.20;;;;;;;18.83;38.08;101083.16;4848144;29;96758;-73
2023/03/11 11:23:24;;;;;;;0.22;0.20;;;;;;;18.88;38.33;101083.53;4837756;29;98029;-73
2023/03/11 11:25:57;;;;;;;0.20;0.10;;;;;;;18.91;38.12;101082.38;4852629;28;96907;-74
2023/03/11 11:28:24;;;;;;;0.20;0.10;;;;;;;18.90;37.80;101078.81;4849813;29;96886;-73
2023/03/11 11:30:56;;;;;;;0.20;0.20;;;;;;;18.91;37.74;101085.97;4828615;29;97035;-73
2023/03/11 11:33:48;;;;;;;0.40;0.28;;;;;;;18.93;38.12;101085.78;4838419;29;98194;-73
2023/03/11 11:36:15;;;;;;;0.25;0.20;;;;;;;18.95;37.90;101089.22;4855259;29;97131;-73